createdAt,value
2018-04-10T00:00:43.791Z,15.34
2018-04-10T00:01:46.805Z,15.17
2018-04-10T00:02:50.137Z,15.28
2018-04-10T00:03:53.225Z,15.34
2018-04-10T00:04:57.837Z,15.36
2018-04-10T00:06:02.549Z,15.31
2018-04-10T00:07:06.790Z,15.29
2018-04-10T00:08:10.094Z,15.21
2018-04-10T00:09:13.041Z,15.13
2018-04-10T00:10:15.953Z,15.10
2018-04-10T00:11:19.475Z,15.11
2018-04-10T00:12:23.088Z,15.07
2018-04-10T00:13:28.520Z,15.01
2018-04-10T00:14:32.193Z,15.01
2018-04-10T00:15:35.167Z,15.04
2018-04-10T00:16:38.216Z,14.92
2018-04-10T00:17:41.122Z,14.78
2018-04-10T00:18:45.474Z,14.69
2018-04-10T00:19:49.188Z,14.57
2018-04-10T00:20:52.222Z,14.54
2018-04-10T00:21:55.552Z,14.49
2018-04-10T00:22:58.500Z,14.45
2018-04-10T00:24:02.264Z,14.47
2018-04-10T00:25:05.887Z,14.54
2018-04-10T00:26:09.327Z,14.65
2018-04-10T00:27:12.309Z,14.71
2018-04-10T00:28:15.367Z,14.69
2018-04-10T00:29:19.223Z,14.72
2018-04-10T00:30:23.348Z,14.79
2018-04-10T00:31:26.897Z,14.85
2018-04-10T00:32:30.197Z,14.84
2018-04-10T00:33:33.130Z,14.89
2018-04-10T00:34:36.196Z,14.82
2018-04-10T00:35:40.009Z,14.66
2018-04-10T00:36:43.231Z,14.68
2018-04-10T00:37:46.336Z,14.72
2018-04-10T00:38:49.641Z,14.72
2018-04-10T00:39:52.755Z,14.74
2018-04-10T00:40:58.706Z,14.79
2018-04-10T00:42:03.033Z,14.80
2018-04-10T00:43:07.050Z,14.69
2018-04-10T00:44:10.070Z,14.66
2018-04-10T00:45:13.381Z,14.58
2018-04-10T00:46:16.418Z,14.47
2018-04-10T00:47:20.058Z,14.34
2018-04-10T00:48:23.698Z,14.29
2018-04-10T00:49:26.799Z,14.28
2018-04-10T00:50:30.013Z,14.34
2018-04-10T00:51:33.197Z,14.41
2018-04-10T00:52:36.489Z,14.45
2018-04-10T00:53:40.571Z,14.48
2018-04-10T00:54:43.484Z,14.53
2018-04-10T00:55:47.041Z,14.60
2018-04-10T00:56:50.038Z,14.68
2018-04-10T00:57:53.733Z,14.56
2018-04-10T00:58:57.853Z,14.41
2018-04-10T01:00:02.457Z,14.39
2018-04-10T01:01:05.474Z,14.43
2018-04-10T01:02:08.404Z,14.46
2018-04-10T01:03:11.317Z,14.41
2018-04-10T01:04:15.264Z,14.35
2018-04-10T01:05:19.712Z,14.29
2018-04-10T01:06:23.767Z,14.22
2018-04-10T01:07:27.051Z,14.19
2018-04-10T01:08:30.242Z,14.18
2018-04-10T01:09:34.824Z,14.11
2018-04-10T01:10:39.095Z,14.04
2018-04-10T01:11:44.397Z,13.93
2018-04-10T01:12:49.399Z,13.82
2018-04-10T01:13:54.989Z,13.76
2018-04-10T01:15:03.830Z,13.74
2018-04-10T01:16:09.501Z,13.75
2018-04-10T01:17:15.795Z,13.81
2018-04-10T01:18:19.995Z,13.88
2018-04-10T01:19:23.373Z,14.02
2018-04-10T01:20:26.567Z,14.02
2018-04-10T01:21:31.260Z,14.01
2018-04-10T01:22:34.445Z,13.84
2018-04-10T01:23:37.746Z,14.02
2018-04-10T01:24:40.722Z,14.17
2018-04-10T01:25:44.292Z,14.27
2018-04-10T01:26:47.518Z,14.32
2018-04-10T01:27:50.729Z,14.29
2018-04-10T01:28:53.679Z,14.23
2018-04-10T01:29:57.273Z,14.19
2018-04-10T01:31:01.317Z,14.17
2018-04-10T01:32:05.515Z,14.19
2018-04-10T01:33:08.696Z,14.26
2018-04-10T01:34:11.670Z,14.30
2018-04-10T01:35:14.596Z,14.36
2018-04-10T01:36:18.214Z,14.39
2018-04-10T01:37:22.260Z,14.27
2018-04-10T01:38:25.239Z,14.09
2018-04-10T01:39:28.181Z,13.92
2018-04-10T01:40:31.159Z,13.73
2018-04-10T01:41:35.818Z,13.63
2018-04-10T01:42:39.935Z,13.60
2018-04-10T01:43:44.077Z,13.64
2018-04-10T01:44:48.069Z,13.62
2018-04-10T01:45:51.040Z,13.57
2018-04-10T01:46:54.054Z,13.61
2018-04-10T01:47:57.594Z,13.68
2018-04-10T01:49:02.894Z,13.65
2018-04-10T01:50:07.148Z,13.65
2018-04-10T01:51:10.113Z,13.67
2018-04-10T01:52:13.115Z,13.73
2018-04-10T01:53:16.112Z,13.78
2018-04-10T01:54:20.997Z,13.84
2018-04-10T01:55:27.148Z,13.90
2018-04-10T01:56:32.486Z,13.96
2018-04-10T01:57:36.595Z,13.95
2018-04-10T01:58:40.614Z,13.86
2018-04-10T01:59:43.625Z,13.81
2018-04-10T02:00:46.560Z,13.81
2018-04-10T02:01:49.820Z,13.81
2018-04-10T02:02:53.450Z,13.70
2018-04-10T02:03:57.597Z,13.69
2018-04-10T02:05:01.059Z,13.61
2018-04-10T02:06:03.983Z,13.66
2018-04-10T02:07:06.896Z,13.65
2018-04-10T02:08:10.871Z,13.62
2018-04-10T02:09:14.593Z,13.69
2018-04-10T02:12:44.525Z,13.74
2018-04-10T02:13:49.383Z,13.67
2018-04-10T02:19:46.472Z,13.83
2018-04-10T02:20:49.420Z,13.88
2018-04-10T02:21:52.328Z,13.89
2018-04-10T02:22:55.550Z,13.91
2018-04-10T02:23:58.896Z,13.86
2018-04-10T02:25:01.916Z,13.84
2018-04-10T02:26:05.109Z,13.74
2018-04-10T02:27:08.025Z,13.72
2018-04-10T02:28:12.471Z,13.60
2018-04-10T02:29:15.732Z,13.63
2018-04-10T02:30:18.629Z,13.62
2018-04-10T02:31:21.621Z,13.63
2018-04-10T02:32:24.867Z,13.70
2018-04-10T02:33:28.081Z,13.75
2018-04-10T02:34:31.512Z,13.74
2018-04-10T02:35:34.406Z,13.74
2018-04-10T02:36:37.311Z,13.77
2018-04-10T02:37:40.411Z,13.78
2018-04-10T02:38:45.729Z,13.78
2018-04-10T02:39:48.929Z,13.66
2018-04-10T02:40:51.871Z,13.64
2018-04-10T02:41:54.845Z,13.60
2018-04-10T02:42:57.982Z,13.57
2018-04-10T02:44:02.388Z,13.57
2018-04-10T02:45:08.632Z,13.53
2018-04-10T02:46:12.047Z,13.49
2018-04-10T02:47:15.301Z,13.46
2018-04-10T02:48:18.301Z,13.39
2018-04-10T02:49:21.252Z,13.29
2018-04-10T02:50:25.679Z,13.29
2018-04-10T02:51:29.935Z,13.20
2018-04-10T02:52:33.865Z,13.14
2018-04-10T02:53:36.907Z,13.10
2018-04-10T02:54:40.231Z,13.08
2018-04-10T02:55:43.203Z,13.12
2018-04-10T02:56:47.247Z,13.13
2018-04-10T02:57:51.197Z,13.08
2018-04-10T02:58:54.147Z,13.06
2018-04-10T02:59:57.152Z,13.04
2018-04-10T03:01:00.073Z,12.99
2018-04-10T03:02:03.451Z,12.94
2018-04-10T03:03:07.589Z,12.88
2018-04-10T03:04:10.518Z,12.81
2018-04-10T03:05:14.002Z,12.76
2018-04-10T03:06:16.900Z,12.66
2018-04-10T03:07:20.670Z,12.64
2018-04-10T03:08:24.793Z,12.63
2018-04-10T03:09:28.291Z,12.57
2018-04-10T03:10:31.487Z,12.47
2018-04-10T03:11:34.393Z,12.45
2018-04-10T03:12:37.765Z,12.45
2018-04-10T03:13:42.298Z,12.43
2018-04-10T03:14:45.121Z,12.48
2018-04-10T03:15:48.852Z,12.57
2018-04-10T03:16:51.785Z,12.58
2018-04-10T03:17:55.217Z,12.60
2018-04-10T03:18:59.860Z,12.57
2018-04-10T03:20:03.533Z,12.66
2018-04-10T03:21:06.661Z,12.74
2018-04-10T03:22:09.840Z,12.58
2018-04-10T03:23:12.782Z,12.67
2018-04-10T03:24:16.728Z,12.70
2018-04-10T03:25:20.911Z,12.78
2018-04-10T03:26:24.353Z,12.85
2018-04-10T03:27:27.482Z,12.93
2018-04-10T03:28:30.681Z,12.97
2018-04-10T03:29:34.625Z,13.02
2018-04-10T03:30:39.953Z,13.06
2018-04-10T03:31:43.565Z,13.14
2018-04-10T03:32:46.508Z,12.80
2018-04-10T03:33:49.453Z,12.72
2018-04-10T03:34:52.435Z,12.87
2018-04-10T03:35:55.890Z,12.92
2018-04-10T03:36:59.979Z,13.00
2018-04-10T03:38:02.823Z,13.02
2018-04-10T03:39:05.695Z,13.10
2018-04-10T03:40:08.522Z,13.14
2018-04-10T03:41:13.102Z,13.20
2018-04-10T03:42:16.643Z,13.25
2018-04-10T03:43:20.170Z,13.12
2018-04-10T03:44:23.207Z,13.09
2018-04-10T03:45:26.592Z,13.13
2018-04-10T03:46:29.850Z,13.18
2018-04-10T03:47:33.492Z,13.21
2018-04-10T03:48:36.485Z,13.01
2018-04-10T03:49:39.785Z,13.05
2018-04-10T03:50:42.701Z,13.11
2018-04-10T03:51:47.461Z,13.10
2018-04-10T03:52:51.161Z,13.15
2018-04-10T03:55:02.172Z,13.17
2018-04-10T03:56:05.324Z,13.13
2018-04-10T03:57:08.553Z,13.06
2018-04-10T03:58:11.470Z,12.85
2018-04-10T03:59:14.722Z,12.78
2018-04-10T04:00:19.067Z,12.81
2018-04-10T04:01:22.094Z,12.86
2018-04-10T04:02:25.229Z,12.91
2018-04-10T04:03:28.371Z,12.92
2018-04-10T04:04:31.907Z,12.91
2018-04-10T04:05:35.624Z,12.91
2018-04-10T04:06:38.786Z,12.95
2018-04-10T04:07:41.728Z,12.92
2018-04-10T04:08:44.731Z,12.89
2018-04-10T04:09:48.568Z,12.76
2018-04-10T04:10:52.679Z,12.66
2018-04-10T04:11:56.505Z,12.52
2018-04-10T04:12:59.475Z,12.47
2018-04-10T04:14:02.423Z,12.46
2018-04-10T04:15:05.650Z,12.44
2018-04-10T04:16:09.888Z,12.37
2018-04-10T04:17:12.780Z,12.34
2018-04-10T04:18:15.736Z,12.27
2018-04-10T04:19:18.551Z,12.16
2018-04-10T04:20:22.491Z,12.09
2018-04-10T04:21:27.086Z,12.07
2018-04-10T04:22:31.092Z,12.04
2018-04-10T04:23:34.137Z,12.00
2018-04-10T04:24:37.031Z,11.94
2018-04-10T04:25:40.920Z,11.89
2018-04-10T04:26:45.311Z,11.85
2018-04-10T04:27:48.847Z,11.80
2018-04-10T04:28:52.351Z,11.79
2018-04-10T04:29:55.288Z,11.76
2018-04-10T04:30:58.187Z,11.68
2018-04-10T04:32:01.982Z,11.57
2018-04-10T04:33:05.874Z,11.54
2018-04-10T04:34:08.975Z,11.50
2018-04-10T04:35:12.184Z,11.48
2018-04-10T04:36:15.132Z,11.45
2018-04-10T04:37:18.518Z,11.42
2018-04-10T04:38:23.088Z,11.40
2018-04-10T04:39:26.464Z,11.36
2018-04-10T04:40:29.429Z,11.31
2018-04-10T04:41:32.693Z,11.31
2018-04-10T04:42:36.304Z,11.27
2018-04-10T04:43:40.280Z,11.25
2018-04-10T04:44:43.400Z,11.26
2018-04-10T04:45:46.970Z,11.30
2018-04-10T04:46:49.904Z,11.33
2018-04-10T04:47:53.646Z,11.30
2018-04-10T04:48:58.153Z,11.30
2018-04-10T04:50:01.856Z,11.31
2018-04-10T04:51:05.284Z,11.31
2018-04-10T04:52:08.298Z,11.35
2018-04-10T04:53:11.258Z,11.37
2018-04-10T04:54:15.407Z,11.35
2018-04-10T04:55:19.119Z,11.30
2018-04-10T04:56:22.056Z,11.31
2018-04-10T04:57:25.111Z,11.32
2018-04-10T04:58:28.056Z,11.30
2018-04-10T04:59:32.393Z,11.33
2018-04-10T05:00:37.029Z,11.30
2018-04-10T05:01:40.422Z,11.33
2018-04-10T05:02:43.277Z,11.34
2018-04-10T05:03:46.252Z,11.30
2018-04-10T05:04:49.655Z,11.31
2018-04-10T05:05:54.044Z,11.24
2018-04-10T05:06:58.106Z,11.21
2018-04-10T05:08:01.071Z,11.20
2018-04-10T05:09:04.144Z,11.19
2018-04-10T05:10:07.066Z,11.21
2018-04-10T05:11:15.853Z,11.22
2018-04-10T05:12:18.954Z,11.23
2018-04-10T05:13:25.757Z,11.25
2018-04-10T05:14:31.135Z,11.21
2018-04-10T05:15:36.225Z,11.16
2018-04-10T05:16:43.086Z,11.16
2018-04-10T05:17:48.673Z,11.12
2018-04-10T05:18:54.060Z,11.09
2018-04-10T05:20:05.137Z,11.11
2018-04-10T05:21:08.320Z,11.22
2018-04-10T05:22:11.465Z,11.28
2018-04-10T05:23:14.814Z,11.33
2018-04-10T05:24:17.927Z,11.38
2018-04-10T05:25:22.357Z,11.37
2018-04-10T05:26:26.792Z,11.37
2018-04-10T05:27:29.778Z,11.41
2018-04-10T05:28:32.754Z,11.40
2018-04-10T05:29:36.035Z,11.40
2018-04-10T05:30:39.809Z,11.39
2018-04-10T05:31:42.785Z,11.37
2018-04-10T05:32:46.001Z,11.35
2018-04-10T05:33:48.880Z,11.33
2018-04-10T05:34:52.245Z,11.29
2018-04-10T05:35:56.028Z,11.30
2018-04-10T05:36:58.908Z,11.34
2018-04-10T05:38:01.872Z,11.41
2018-04-10T05:39:05.164Z,11.48
2018-04-10T05:40:08.329Z,11.45
2018-04-10T05:41:11.655Z,11.47
2018-04-10T05:42:14.510Z,11.45
2018-04-10T05:43:18.161Z,11.57
2018-04-10T05:44:21.057Z,11.55
2018-04-10T05:45:26.056Z,11.63
2018-04-10T05:46:29.536Z,11.65
2018-04-10T05:47:32.451Z,11.67
2018-04-10T05:48:35.424Z,11.72
2018-04-10T05:49:38.395Z,11.64
2018-04-10T05:50:42.020Z,11.66
2018-04-10T05:51:45.960Z,11.65
2018-04-10T05:52:49.069Z,11.75
2018-04-10T05:53:52.186Z,11.90
2018-04-10T05:54:55.094Z,11.94
2018-04-10T05:55:58.632Z,11.95
2018-04-10T05:57:02.599Z,12.05
2018-04-10T05:58:07.234Z,12.17
2018-04-10T05:59:10.227Z,12.24
2018-04-10T06:00:13.247Z,12.32
2018-04-10T06:01:16.634Z,12.30
2018-04-10T06:02:20.481Z,12.36
2018-04-10T06:03:23.399Z,12.34
2018-04-10T06:04:26.603Z,12.36
2018-04-10T06:05:29.591Z,12.38
2018-04-10T06:06:33.840Z,12.35
2018-04-10T06:07:40.340Z,12.43
2018-04-10T06:08:44.397Z,12.55
2018-04-10T06:09:48.263Z,12.64
2018-04-10T06:10:51.759Z,12.69
2018-04-10T06:11:54.687Z,12.63
2018-04-10T06:12:57.659Z,12.48
2018-04-10T06:14:01.346Z,12.45
2018-04-10T06:15:08.441Z,12.34
2018-04-10T07:27:50.416Z,14.98
2018-04-10T07:28:53.509Z,15.02
2018-04-10T07:29:57.187Z,15.02
2018-04-10T07:31:01.074Z,14.85
2018-04-10T07:32:04.741Z,14.73
2018-04-10T07:33:07.717Z,14.70
2018-04-10T07:34:11.730Z,14.67
2018-04-10T07:35:16.418Z,14.72
2018-04-10T07:36:19.651Z,14.72
2018-04-10T07:37:22.925Z,14.79
2018-04-10T07:38:25.946Z,14.85
2018-04-10T08:16:32.251Z,15.53
2018-04-10T08:17:35.207Z,15.46
2018-04-10T08:18:38.161Z,15.61
2018-04-10T08:19:41.113Z,15.63
2018-04-10T08:20:44.096Z,15.69
2018-04-10T08:21:47.094Z,15.74
2018-04-10T08:22:50.529Z,16.05
2018-04-10T08:23:53.493Z,16.18
2018-04-10T08:24:56.533Z,16.09
2018-04-10T08:25:59.525Z,16.16
2018-04-10T08:27:02.531Z,16.01
2018-04-10T08:28:05.525Z,16.16
2018-04-10T08:29:09.327Z,16.21
2018-04-10T08:30:12.418Z,16.55
2018-04-10T08:31:15.435Z,16.74
2018-04-10T08:32:19.331Z,16.84
2018-04-10T08:33:22.522Z,16.85
2018-04-10T08:34:26.242Z,16.77
2018-04-10T08:35:29.736Z,17.03
2018-04-10T08:36:32.667Z,17.34
2018-04-10T08:37:39.117Z,17.27
2018-04-10T08:38:42.100Z,17.36
2018-04-10T08:39:45.573Z,17.42
2018-04-10T08:40:49.441Z,17.54
2018-04-10T08:41:53.088Z,17.68
2018-04-10T08:43:00.698Z,17.40
2018-04-10T08:44:05.947Z,17.41
2018-04-10T08:45:14.351Z,17.69
2018-04-10T08:46:19.681Z,17.89
2018-04-10T08:47:25.000Z,17.77
2018-04-10T08:48:28.760Z,17.89
2018-04-10T08:49:33.293Z,17.95
2018-04-10T08:50:36.621Z,18.17
2018-04-10T08:51:39.738Z,18.39
2018-04-10T08:52:42.783Z,18.26
2018-04-10T08:53:46.179Z,18.43
2018-04-10T08:54:50.342Z,18.32
2018-04-10T08:55:53.431Z,18.59
2018-04-10T08:56:56.389Z,19.04
2018-04-10T08:57:59.494Z,19.42
2018-04-10T08:59:02.746Z,19.74
2018-04-10T09:00:07.060Z,19.96
2018-04-10T09:01:10.842Z,19.77
2018-04-10T09:02:13.902Z,19.49
2018-04-10T09:03:16.945Z,19.92
2018-04-10T09:04:20.165Z,20.18
2018-04-10T09:05:24.889Z,20.24
2018-04-10T09:06:28.127Z,19.95
2018-04-10T09:07:33.269Z,20.01
2018-04-10T09:08:37.622Z,19.48
2018-04-10T09:09:40.707Z,19.42
2018-04-10T09:10:43.804Z,19.40
2018-04-10T09:11:46.846Z,19.16
2018-04-10T09:12:51.584Z,19.19
2018-04-10T09:13:54.841Z,19.14
2018-04-10T09:14:59.550Z,19.08
2018-04-10T09:16:03.531Z,19.16
2018-04-10T09:17:07.311Z,19.08
2018-04-10T09:18:10.255Z,19.11
2018-04-10T09:19:13.482Z,19.08
2018-04-10T09:20:16.757Z,19.11
2018-04-10T09:21:20.325Z,18.55
2018-04-10T09:22:23.399Z,18.49
2018-04-10T09:23:27.134Z,18.39
2018-04-10T09:24:30.068Z,18.32
2018-04-10T09:25:33.742Z,18.36
2018-04-10T09:26:37.027Z,18.26
2018-04-10T09:27:40.069Z,18.42
2018-04-10T09:28:43.029Z,18.50
2018-04-10T09:29:46.276Z,18.38
2018-04-10T09:30:50.390Z,18.30
2018-04-10T09:31:53.970Z,18.37
2018-04-10T09:32:56.987Z,18.38
2018-04-10T09:33:59.979Z,18.16
2018-04-10T09:35:03.079Z,17.92
2018-04-10T09:36:06.558Z,18.15
2018-04-10T09:37:09.526Z,18.16
2018-04-10T09:38:12.898Z,18.14
2018-04-10T09:39:15.854Z,18.09
2018-04-10T09:40:20.304Z,17.76
2018-04-10T09:41:24.092Z,17.40
2018-04-10T09:42:27.100Z,17.61
2018-04-10T09:43:30.044Z,17.85
2018-04-10T09:44:33.840Z,17.79
2018-04-10T09:45:38.207Z,17.98
2018-04-10T09:47:50.326Z,17.85
2018-04-10T09:48:54.633Z,18.07
2018-04-10T09:49:57.957Z,18.07
2018-04-10T09:51:01.742Z,18.17
2018-04-10T09:52:04.848Z,18.20
2018-04-10T09:53:07.968Z,18.24
2018-04-10T09:54:12.039Z,18.16
2018-04-10T09:55:17.340Z,17.97
2018-04-10T09:56:21.753Z,17.79
2018-04-10T09:57:28.080Z,17.61
2018-04-10T09:58:33.686Z,17.46
2018-04-10T09:59:42.225Z,17.36
2018-04-10T10:00:45.827Z,17.30
2018-04-10T10:01:49.597Z,17.12
2018-04-10T10:02:53.708Z,17.16
2018-04-10T10:03:57.823Z,17.25
2018-04-10T10:05:00.841Z,17.36
2018-04-10T10:06:03.750Z,17.58
2018-04-10T10:07:07.168Z,17.65
2018-04-10T10:08:11.180Z,17.71
2018-04-10T10:09:14.472Z,17.79
2018-04-10T10:10:18.080Z,17.70
2018-04-10T10:11:22.041Z,17.85
2018-04-10T10:12:25.001Z,18.03
2018-04-10T10:13:28.768Z,18.17
2018-04-10T10:14:32.745Z,18.29
2018-04-10T10:15:36.202Z,18.36
2018-04-10T10:16:40.122Z,18.44
2018-04-10T10:17:45.150Z,18.34
2018-04-10T10:18:48.521Z,18.55
2018-04-10T10:24:51.610Z,18.67
2018-04-10T10:25:56.362Z,18.21
2018-04-10T10:26:59.965Z,18.19
2018-04-10T10:28:04.473Z,18.14
2018-04-10T10:29:08.008Z,18.07
2018-04-10T10:30:11.959Z,18.06
2018-04-10T10:31:15.466Z,18.33
2018-04-10T10:32:18.531Z,18.48
2018-04-10T10:33:21.518Z,18.65
2018-04-10T10:34:24.479Z,18.73
2018-04-10T10:35:29.349Z,18.89
2018-04-10T10:36:32.740Z,19.04
2018-04-10T10:37:36.111Z,19.13
2018-04-10T10:38:39.115Z,19.30
2018-04-10T10:39:42.427Z,19.23
2018-04-10T10:40:45.390Z,19.37
2018-04-10T10:41:48.393Z,19.28
2018-04-10T10:42:51.363Z,19.09
2018-04-10T10:43:55.831Z,19.28
2018-04-10T10:44:59.353Z,19.20
2018-04-10T10:46:04.130Z,19.45
2018-04-10T10:47:07.191Z,19.59
2018-04-10T10:48:10.190Z,19.58
2018-04-10T10:49:13.144Z,19.66
2018-04-10T10:50:16.945Z,19.73
2018-04-10T10:51:20.796Z,19.47
2018-04-10T10:52:25.325Z,19.14
2018-04-10T10:53:28.583Z,19.01
2018-04-10T10:54:31.885Z,18.97
2018-04-10T10:55:34.931Z,19.26
2018-04-10T10:56:37.964Z,19.45
2018-04-10T10:57:41.762Z,19.67
2018-04-10T10:58:44.756Z,19.82
2018-04-10T10:59:47.756Z,19.92
2018-04-10T11:00:50.797Z,20.15
2018-04-10T11:01:55.183Z,20.03
2018-04-10T11:02:58.091Z,20.07
2018-04-10T11:04:01.828Z,20.21
2018-04-10T11:05:05.157Z,20.28
2018-04-10T11:06:08.147Z,20.30
2018-04-10T11:07:11.689Z,20.26
2018-04-10T11:08:15.253Z,20.47
2018-04-10T11:09:18.472Z,20.14
2018-04-10T11:10:21.412Z,19.92
2018-04-10T11:11:26.766Z,19.69
2018-04-10T11:12:30.509Z,19.53
2018-04-10T11:13:34.274Z,19.36
2018-04-10T11:14:37.729Z,19.49
2018-04-10T11:15:40.865Z,19.80
2018-04-10T11:16:45.323Z,19.64
2018-04-10T11:17:48.455Z,19.65
2018-04-10T11:18:51.439Z,20.09
2018-04-10T11:19:54.346Z,20.47
2018-04-10T11:20:57.741Z,20.81
2018-04-10T11:22:00.749Z,21.09
2018-04-10T11:23:05.268Z,20.99
2018-04-10T11:24:08.264Z,21.35
2018-04-10T11:25:13.326Z,21.53
2018-04-10T11:26:16.743Z,21.72
2018-04-10T11:27:20.983Z,21.53
2018-04-10T11:28:24.162Z,21.32
2018-04-10T11:29:27.207Z,21.20
2018-04-10T11:30:30.156Z,20.78
2018-04-10T11:31:33.857Z,20.70
2018-04-10T11:32:36.850Z,20.61
2018-04-10T11:33:41.074Z,20.50
2018-04-10T11:34:44.104Z,20.29
2018-04-10T11:35:47.150Z,20.26
2018-04-10T11:36:50.148Z,20.68
2018-04-10T11:37:53.091Z,20.93
2018-04-10T11:38:56.141Z,21.29
2018-04-10T11:39:59.360Z,21.12
2018-04-10T11:41:03.882Z,20.75
2018-04-10T11:42:06.797Z,20.86
2018-04-10T11:43:13.110Z,20.98
2018-04-10T11:44:16.021Z,21.23
2018-04-10T11:45:18.995Z,20.91
2018-04-10T11:46:22.306Z,21.41
2018-04-10T11:47:25.576Z,21.81
2018-04-10T11:48:29.443Z,22.21
2018-04-10T11:49:34.231Z,22.46
2018-04-10T11:50:37.196Z,22.22
2018-04-10T11:51:40.741Z,22.06
2018-04-10T11:52:43.739Z,21.97
2018-04-10T11:53:46.643Z,21.95
2018-04-10T11:54:49.828Z,21.90
2018-04-10T11:55:53.238Z,22.09
2018-04-10T11:56:56.704Z,22.09
2018-04-10T11:58:02.069Z,22.54
2018-04-10T11:59:05.058Z,22.84
2018-04-10T12:00:08.599Z,23.01
2018-04-10T12:01:12.932Z,23.10
2018-04-10T12:02:17.209Z,23.43
2018-04-10T12:03:20.256Z,23.64
2018-04-10T12:04:23.557Z,23.79
2018-04-10T12:05:26.508Z,23.49
2018-04-10T12:06:29.467Z,22.98
2018-04-10T12:07:32.574Z,23.33
2018-04-10T12:08:35.497Z,23.81
2018-04-10T12:09:38.455Z,24.08
2018-04-10T12:10:42.001Z,24.21
2018-04-10T12:11:45.178Z,23.52
2018-04-10T12:12:48.664Z,23.28
2018-04-10T12:13:51.968Z,22.96
2018-04-10T12:14:56.330Z,22.95
2018-04-10T12:15:59.377Z,22.86
2018-04-10T12:17:03.226Z,22.65
2018-04-10T12:18:06.242Z,22.36
2018-04-10T12:19:09.537Z,22.39
2018-04-10T12:20:12.561Z,22.52
2018-04-10T12:21:15.933Z,22.48
2018-04-10T12:22:19.470Z,22.82
2018-04-10T12:23:22.974Z,23.23
2018-04-10T12:24:26.003Z,22.88
2018-04-10T12:25:29.118Z,22.89
2018-04-10T12:26:32.074Z,23.09
2018-04-10T12:27:37.108Z,23.42
2018-04-10T12:28:47.907Z,23.50
2018-04-10T12:29:51.976Z,23.92
2018-04-10T12:30:56.337Z,24.25
2018-04-10T12:32:03.890Z,24.38
2018-04-10T12:33:07.051Z,24.38
2018-04-10T12:34:10.453Z,23.32
2018-04-10T12:35:13.694Z,22.70
2018-04-10T12:36:16.663Z,22.85
2018-04-10T12:37:20.378Z,22.70
2018-04-10T12:38:23.369Z,22.33
2018-04-10T12:39:27.566Z,22.18
2018-04-10T12:40:30.776Z,22.63
2018-04-10T12:41:34.034Z,23.23
2018-04-10T12:42:37.032Z,23.58
2018-04-10T12:43:40.022Z,23.79
2018-04-10T12:44:43.424Z,23.55
2018-04-10T12:45:46.408Z,23.94
2018-04-10T12:46:50.193Z,23.66
2018-04-10T12:47:53.650Z,23.45
2018-04-10T12:48:57.742Z,23.32
2018-04-10T19:05:06.945Z,14.51
2018-04-10T19:06:09.829Z,14.40
2018-04-10T19:07:12.831Z,14.46
2018-04-10T19:08:17.905Z,14.55
2018-04-10T19:09:20.910Z,14.44
2018-04-10T19:10:24.175Z,14.58
2018-04-10T19:11:27.576Z,14.69
2018-04-10T19:12:30.610Z,14.75
2018-04-10T19:13:33.589Z,14.70
2018-04-10T19:14:36.576Z,14.80
2018-04-10T19:15:39.618Z,14.93
2018-04-10T19:16:42.923Z,14.73
2018-04-10T19:17:45.943Z,14.58
2018-04-10T19:18:48.926Z,14.63
2018-04-10T19:19:51.998Z,14.63
2018-04-10T19:20:55.260Z,14.66
2018-04-10T19:21:58.277Z,14.35
2018-04-10T19:23:01.587Z,14.01
2018-04-10T19:24:04.968Z,13.88
2018-04-10T19:25:08.105Z,13.83
2018-04-10T19:26:11.270Z,13.91
2018-04-10T19:27:14.259Z,13.98
2018-04-10T19:28:17.322Z,13.87
2018-04-10T19:29:20.564Z,13.97
2018-04-10T19:30:23.513Z,14.02
2018-04-10T19:31:26.454Z,14.05
2018-04-10T19:32:29.450Z,14.14
2018-04-10T19:33:32.431Z,14.12
2018-04-10T19:34:35.406Z,14.19
2018-04-10T19:35:38.955Z,14.27
2018-04-10T19:36:42.179Z,14.36
2018-04-10T19:37:45.214Z,14.34
2018-04-10T19:38:48.136Z,14.36
2018-04-10T19:39:51.130Z,14.33
2018-04-10T19:40:54.322Z,14.37
2018-04-10T19:41:57.832Z,14.49
2018-04-10T19:43:00.765Z,14.60
2018-04-10T19:44:03.807Z,14.65
2018-04-10T19:45:06.757Z,14.66
2018-04-10T19:46:09.827Z,14.71
2018-04-10T19:47:12.837Z,14.76
2018-04-10T19:48:16.076Z,14.77
2018-04-10T19:49:19.563Z,14.79
2018-04-10T19:50:22.515Z,14.81
2018-04-10T19:51:25.476Z,14.85
2018-04-10T19:52:28.442Z,14.84
2018-04-10T19:53:31.538Z,14.86
2018-04-10T19:54:34.839Z,14.92
2018-04-10T19:55:37.825Z,14.98
2018-04-10T19:56:40.797Z,14.76
2018-04-10T19:57:43.839Z,14.55
2018-04-10T19:58:46.785Z,14.53
2018-04-10T19:59:49.675Z,14.49
2018-04-10T20:00:53.024Z,14.45
2018-04-10T20:01:56.017Z,14.58
2018-04-10T20:02:59.014Z,14.69
2018-04-10T20:04:02.004Z,14.75
2018-04-10T20:05:04.900Z,14.79
2018-04-10T20:06:07.811Z,14.87
2018-04-10T20:07:11.157Z,14.96
2018-04-10T20:08:14.204Z,15.01
2018-04-10T20:09:17.108Z,15.03
2018-04-10T20:10:20.204Z,15.05
2018-04-10T20:11:24.162Z,15.10
2018-04-10T20:12:27.144Z,15.15
2018-04-10T20:13:31.525Z,15.20
2018-04-10T20:14:34.533Z,15.24
2018-04-10T20:15:37.528Z,15.29
2018-04-10T20:16:40.524Z,15.26
2018-04-10T20:17:43.590Z,14.59
2018-04-10T20:18:46.569Z,14.21
2018-04-10T20:19:50.011Z,14.17
2018-04-10T20:20:53.127Z,14.04
2018-04-10T20:21:56.202Z,13.93
2018-04-10T20:22:59.159Z,13.81
2018-04-10T20:24:02.065Z,13.72
2018-04-10T20:25:05.044Z,13.64
2018-04-10T20:26:08.314Z,13.58
2018-04-10T20:27:12.109Z,13.58
2018-04-10T20:28:14.982Z,13.49
2018-04-10T20:29:17.843Z,13.44
2018-04-10T20:30:27.793Z,13.30
2018-04-10T20:31:31.362Z,13.25
2018-04-10T20:32:34.348Z,13.14
2018-04-10T20:33:37.325Z,13.00
2018-04-10T20:34:40.289Z,13.03
2018-04-10T20:35:43.332Z,13.11
2018-04-10T20:36:46.336Z,13.16
2018-04-10T20:37:49.615Z,13.13
2018-04-10T20:38:52.930Z,13.09
2018-04-10T20:39:56.212Z,13.04
2018-04-10T20:40:59.324Z,12.97
2018-04-10T20:42:02.313Z,13.04
2018-04-10T20:43:05.268Z,13.04
2018-04-10T20:44:08.617Z,13.03
2018-04-10T20:45:11.581Z,13.10
2018-04-10T20:46:14.773Z,13.09
2018-04-10T20:47:17.808Z,13.20
2018-04-10T20:48:20.984Z,13.23
2018-04-10T20:49:23.994Z,13.20
2018-04-10T20:50:27.441Z,13.28
2018-04-10T20:51:30.469Z,13.38
2018-04-10T20:52:33.367Z,13.47
2018-04-10T20:53:36.722Z,13.56
2018-04-10T20:54:39.830Z,13.57
2018-04-10T20:55:42.815Z,13.66
2018-04-10T20:56:46.188Z,13.72
2018-04-10T20:57:49.143Z,13.85
2018-04-10T20:58:52.090Z,13.97
2018-04-10T20:59:55.074Z,14.05
2018-04-10T21:00:58.083Z,14.13
2018-04-10T21:02:01.067Z,14.18
2018-04-10T21:03:05.060Z,14.24
2018-04-10T21:04:09.461Z,14.24
2018-04-10T21:05:12.551Z,14.21
2018-04-10T21:06:15.576Z,14.21
2018-04-10T21:07:18.618Z,14.25
2018-04-10T21:08:21.702Z,14.25
2018-04-10T21:09:25.695Z,14.23
2018-04-10T21:10:28.638Z,14.09
2018-04-10T21:11:31.781Z,14.07
2018-04-10T21:12:34.794Z,13.99
2018-04-10T21:13:37.737Z,13.73
2018-04-10T21:14:40.833Z,13.76
2018-04-10T21:15:44.052Z,13.90
2018-04-10T21:16:47.071Z,14.01
2018-04-10T21:17:50.128Z,14.06
2018-04-10T21:18:53.207Z,14.06
2018-04-10T21:19:56.402Z,14.03
2018-04-10T21:20:59.487Z,14.09
2018-04-10T21:22:03.240Z,13.94
2018-04-10T21:23:06.196Z,13.72
2018-04-10T21:24:09.170Z,13.70
2018-04-10T21:25:12.186Z,13.62
2018-04-10T21:26:15.162Z,13.76
2018-04-10T21:27:18.257Z,13.68
2018-04-10T21:28:21.545Z,13.64
2018-04-10T21:29:24.540Z,13.72
2018-04-10T21:30:27.553Z,13.80
2018-04-10T21:31:30.551Z,13.81
2018-04-10T21:32:33.576Z,13.83
2018-04-10T21:33:36.593Z,13.59
2018-04-10T21:35:45.027Z,13.52
2018-04-10T21:36:48.091Z,13.46
2018-04-10T21:37:51.145Z,13.40
2018-04-10T21:38:54.029Z,13.30
2018-04-10T21:39:56.914Z,13.17
2018-04-10T21:41:00.098Z,13.07
2018-04-10T21:42:03.151Z,13.14
2018-04-10T21:43:09.981Z,13.12
2018-04-10T21:44:12.926Z,13.12
2018-04-10T21:45:15.935Z,12.84
2018-04-10T21:46:19.907Z,12.78
2018-04-10T21:47:23.184Z,12.85
2018-04-10T21:48:26.111Z,12.92
2018-04-10T21:49:29.143Z,12.94
2018-04-10T21:50:32.101Z,12.87
2018-04-10T21:51:35.080Z,12.80
2018-04-10T21:52:38.030Z,12.82
2018-04-10T21:53:41.366Z,12.93
2018-04-10T21:54:44.359Z,12.84
2018-04-10T21:55:47.242Z,12.75
2018-04-10T21:56:50.129Z,12.68
2018-04-10T21:57:52.983Z,12.70